KDVTKFLG

Guest
Details From KDVT - PHOENIX DEER VALLEY
To KFLG - Flagstaff Pulliam
Flight Number -
Tags generated
Created
Modified
Stats Distance 90 nm / 166 km
Max Altitude 3,400 ft / 1,036 m
Waypoints 3
Social Downloads 0
Likes 0
Share VATSIM

Download

Looking for another format? Having issues loading an existing format? Contact us
Advertisement - Login to hide

Notes

Basic altitude profile: - Ascent Rate: 2500ft/min - Ascent Speed: 250kts - Cruise Altitude: 35000ft - Cruise Speed: 420kts - Descent Rate: 1500ft/min - Descent Speed: 250kts Options: - Use NATs: yes - Use PACOTS: yes - Use low airways: yes - Use high airways: yes

Route

KDVT OATES KFLG

ID Type Via Altitude Latitude Longitude Leg Dist Tot Dist Heading (true) Name
O KDVT APT - 0 ft / 0 m 33.68860˚ -112.08244˚ - 0 nm - PHOENIX DEER VALLEY
OATES FIX - 3,400 ft / 1,036 m 34.87014˚ -111.70939˚ 73 nm 73 nm 15° / 15° -
O KFLG APT - 0 ft / 0 m 35.13845˚ -111.67122˚ 16 nm 89 nm 7° / 7° Flagstaff Pulliam

Altitude Profile

Advertisement - Login to hide

KDVT

Details ICAO KDVT (DVT)
Name PHOENIX DEER VALLEY
Region United States
Timezone America/Phoenix (UTC-7.0)
Stats Elevation 1,478 ft / 450 m (AMSL)
Location 33.688604° -112.082441°
Runways 2
Magnetic Variation 10.375° E

METAR

KDVT 172253Z 12007KT 10SM CLR 15/05 A2991 RMK AO2 SLP118 T01500050

Decode

TAF

Not found

Departure Runways

ID Width Length Bearing (true) Bearing (mag) Surface Threshold Offset Overrun Length
07L 75 ft / 23 m 4,491 ft / 1,369 m 86.00° 75.62° Asphalt 0 ft / 0 m 0 ft / 0 m
07R 100 ft / 30 m 8,192 ft / 2,497 m 85.98° 75.60° Asphalt 897 ft / 273 m 154 ft / 47 m
25L 100 ft / 30 m 8,192 ft / 2,497 m 266.00° 255.62° Asphalt 930 ft / 283 m 140 ft / 43 m
25R 75 ft / 23 m 4,491 ft / 1,369 m 266.01° 255.63° Asphalt 0 ft / 0 m 0 ft / 0 m

KFLG

Details ICAO KFLG (FLG)
Name Flagstaff Pulliam
Region United States
Timezone America/Phoenix (UTC-7.0)
Stats Elevation 7,011 ft / 2,137 m (AMSL)
Location 35.138455° -111.671215°
Runways 1
Magnetic Variation 10.463° E

METAR

KFLG 172257Z 05010KT 10SM CLR 06/M10 A2999 RMK AO2 SLP134 T00611100

Decode

TAF

TAF KFLG 171720Z 1718/1818 07009G15KT P6SM SCT060 TEMPO 1720/1724 BKN045 FM180200 06005KT P6SM SCT030 SCT060

Decode

Destination Runways

ID Width Length Bearing (true) Bearing (mag) Surface Threshold Offset Overrun Length
03 150 ft / 46 m 7,003 ft / 2,135 m 41.03° 30.57° Asphalt 0 ft / 0 m 0 ft / 0 m
21 150 ft / 46 m 7,003 ft / 2,135 m 221.04° 210.58° Asphalt 0 ft / 0 m 0 ft / 0 m

Approach Navaids

Runway Type Ident Frequency Range Bearing (true) Bearing (mag) Slope Elevation
21 Localiser IFLG 110.50 MHz 18 nm / 33 km 226.05° 215.59° - 7,011 ft / 2,137 m (AMSL)
21 Glidescope IFLG 110.50 MHz 10 nm / 19 km 221.04° 210.58° 3.00° 6,998 ft / 2,133 m (AMSL)

Popular Alternatives